createdAt,value
2022-07-30T00:04:31.572Z,101.94
2022-07-30T00:09:36.275Z,86.43
2022-07-30T00:14:30.130Z,76.50
2022-07-30T00:19:29.516Z,84.38
2022-07-30T00:24:28.812Z,99.83
2022-07-30T00:29:31.327Z,82.38
2022-07-30T00:34:27.396Z,75.16
2022-07-30T00:39:26.799Z,83.82
2022-07-30T00:44:29.586Z,100.71
2022-07-30T00:49:26.202Z,80.51
2022-07-30T00:54:24.832Z,74.51
2022-07-30T00:59:24.149Z,88.23
2022-07-30T01:04:23.459Z,96.87
2022-07-30T01:09:22.901Z,71.77
2022-07-30T01:14:25.455Z,75.74
2022-07-30T01:19:22.512Z,76.10
2022-07-30T01:24:21.367Z,73.91
2022-07-30T01:29:20.288Z,74.41
2022-07-30T01:34:23.610Z,74.71
2022-07-30T01:39:18.986Z,74.88
2022-07-30T01:44:23.979Z,71.93
2022-07-30T01:49:18.460Z,71.61
2022-07-30T01:54:16.940Z,71.96
2022-07-30T01:59:19.390Z,75.46
2022-07-30T02:04:18.763Z,78.13
2022-07-30T02:09:15.111Z,72.82
2022-07-30T02:14:14.327Z,73.03
2022-07-30T02:19:16.883Z,70.83
2022-07-30T02:24:13.300Z,70.98
2022-07-30T02:29:15.480Z,72.01
2022-07-30T02:34:11.580Z,72.04
2022-07-30T02:39:12.573Z,71.33
2022-07-30T02:44:13.301Z,70.99
2022-07-30T02:49:09.571Z,67.44
2022-07-30T02:54:12.607Z,70.05
2022-07-30T02:59:11.489Z,67.32
2022-07-30T03:04:11.213Z,70.68
2022-07-30T03:09:07.373Z,71.46
2022-07-30T03:14:09.451Z,73.85
2022-07-30T03:19:05.568Z,70.65
2022-07-30T03:24:04.939Z,70.37
2022-07-30T03:29:07.477Z,68.37
2022-07-30T03:34:03.609Z,65.76
2022-07-30T03:39:06.213Z,65.91
2022-07-30T03:44:02.241Z,65.47
2022-07-30T03:49:01.715Z,66.72
2022-07-30T03:54:01.031Z,66.92
2022-07-30T03:59:03.516Z,72.37
2022-07-30T04:04:02.712Z,69.79
2022-07-30T04:09:02.091Z,70.00
2022-07-30T04:13:58.260Z,65.67
2022-07-30T04:19:00.756Z,66.86
2022-07-30T04:24:02.269Z,70.05
2022-07-30T04:28:59.540Z,67.64
2022-07-30T04:33:55.922Z,69.63
2022-07-30T04:38:55.074Z,68.51
2022-07-30T04:43:54.356Z,65.07
2022-07-30T04:48:56.733Z,70.76
2022-07-30T04:53:52.890Z,65.74
2022-07-30T04:58:55.495Z,63.71
2022-07-30T05:03:54.590Z,60.62
2022-07-30T05:08:54.021Z,60.85
2022-07-30T05:13:50.214Z,65.29
2022-07-30T05:18:49.577Z,64.59
2022-07-30T05:23:52.010Z,64.73
2022-07-30T05:28:53.561Z,63.33
2022-07-30T05:33:50.756Z,63.64
2022-07-30T05:38:46.845Z,67.77
2022-07-30T05:43:46.300Z,62.35
2022-07-30T05:48:50.338Z,67.48
2022-07-30T05:53:44.921Z,71.94
2022-07-30T05:58:44.196Z,76.76
2022-07-30T06:03:43.369Z,74.15
2022-07-30T06:08:45.911Z,69.59
2022-07-30T06:13:42.006Z,73.08
2022-07-30T06:18:41.364Z,74.90
2022-07-30T06:23:43.733Z,73.76
2022-07-30T06:28:40.320Z,70.04
2022-07-30T06:33:42.479Z,73.68
2022-07-30T06:38:38.844Z,73.72
2022-07-30T06:43:39.092Z,68.70
2022-07-30T06:48:37.286Z,62.09
2022-07-30T06:53:42.349Z,59.12
2022-07-30T06:58:35.927Z,59.32
2022-07-30T07:03:39.893Z,55.29
2022-07-30T07:08:34.557Z,56.54
2022-07-30T07:13:33.998Z,59.86
2022-07-30T07:18:36.984Z,59.13
2022-07-30T07:23:41.411Z,58.53
2022-07-30T07:28:35.144Z,58.89
2022-07-30T07:33:31.461Z,63.08
2022-07-30T07:38:33.899Z,61.10
2022-07-30T07:43:29.963Z,60.17
2022-07-30T07:48:32.554Z,58.24
2022-07-30T07:53:29.248Z,54.88
2022-07-30T07:58:28.329Z,53.96
2022-07-30T08:03:30.659Z,55.13
2022-07-30T08:08:26.792Z,54.77
2022-07-30T08:13:48.480Z,55.15
2022-07-30T08:18:29.300Z,56.66
2022-07-30T08:23:24.897Z,62.99
2022-07-30T08:28:35.904Z,58.63
2022-07-30T08:33:27.532Z,57.42
2022-07-30T08:38:23.101Z,56.93
2022-07-30T08:43:23.547Z,57.99
2022-07-30T08:48:25.867Z,58.63
2022-07-30T08:53:24.660Z,57.24
2022-07-30T08:58:20.374Z,57.17
2022-07-30T09:03:19.855Z,58.35
2022-07-30T09:08:19.884Z,59.67
2022-07-30T09:13:21.869Z,60.33
2022-07-30T09:18:17.850Z,57.85
2022-07-30T09:23:17.384Z,59.36
2022-07-30T09:28:19.788Z,60.87
2022-07-30T09:33:15.988Z,58.27
2022-07-30T09:38:15.430Z,56.52
2022-07-30T09:43:17.983Z,56.08
2022-07-30T09:48:14.193Z,57.65
2022-07-30T09:53:13.649Z,59.84
2022-07-30T09:58:26.483Z,58.35
2022-07-30T10:03:33.026Z,60.46
2022-07-30T10:08:16.337Z,58.40
2022-07-30T10:13:11.356Z,60.02
2022-07-30T10:18:14.299Z,59.21
2022-07-30T10:23:10.108Z,58.60
2022-07-30T10:28:09.815Z,60.46
2022-07-30T10:33:09.206Z,61.56
2022-07-30T10:38:08.400Z,57.76
2022-07-30T10:43:11.329Z,59.87
2022-07-30T10:48:07.401Z,60.97
2022-07-30T10:53:06.873Z,60.00
2022-07-30T10:58:09.935Z,54.92
2022-07-30T11:03:15.062Z,58.58
2022-07-30T11:08:08.770Z,59.23
2022-07-30T11:13:05.038Z,61.93
2022-07-30T11:18:04.781Z,57.39
2022-07-30T11:23:05.546Z,60.04
2022-07-30T11:28:07.384Z,61.82
2022-07-30T11:33:03.872Z,60.92
2022-07-30T11:38:04.312Z,58.07
2022-07-30T11:43:03.328Z,57.97
2022-07-30T11:48:06.325Z,56.79
2022-07-30T11:53:02.353Z,54.28
2022-07-30T11:58:05.151Z,58.04
2022-07-30T12:03:05.400Z,59.35
2022-07-30T12:08:01.659Z,58.14
2022-07-30T12:13:05.054Z,57.50
2022-07-30T12:18:24.269Z,58.42
2022-07-30T12:23:00.694Z,57.35
2022-07-30T12:28:03.518Z,60.39
2022-07-30T12:33:00.281Z,61.06
2022-07-30T12:37:59.696Z,65.64
2022-07-30T12:43:02.325Z,59.57
2022-07-30T12:48:02.999Z,57.61
2022-07-30T12:52:58.634Z,60.35
2022-07-30T12:57:58.332Z,58.18
2022-07-30T13:03:00.957Z,58.43
2022-07-30T13:07:57.083Z,57.51
2022-07-30T13:13:05.432Z,59.56
2022-07-30T13:18:01.445Z,63.67
2022-07-30T13:23:02.001Z,62.07
2022-07-30T13:28:03.684Z,60.83
2022-07-30T13:32:55.724Z,61.96
2022-07-30T13:37:59.314Z,58.67
2022-07-30T13:42:56.103Z,59.92
2022-07-30T13:47:54.409Z,57.92
2022-07-30T13:52:55.287Z,54.56
2022-07-30T13:57:53.512Z,58.34
2022-07-30T14:02:56.907Z,60.72
2022-07-30T14:07:53.388Z,62.31
2022-07-30T14:12:55.680Z,60.92
2022-07-30T14:17:56.240Z,63.20
2022-07-30T14:22:51.786Z,61.07
2022-07-30T14:27:51.923Z,59.13
2022-07-30T14:33:00.394Z,57.67
2022-07-30T14:37:50.754Z,60.35
2022-07-30T14:42:56.186Z,60.90
2022-07-30T15:17:52.141Z,56.05
2022-07-30T15:22:50.159Z,58.21
2022-07-30T15:27:46.825Z,56.39
2022-07-30T15:32:46.455Z,58.38
2022-07-30T15:37:49.146Z,57.37
2022-07-30T15:42:45.587Z,55.12
2022-07-30T15:47:48.299Z,58.07
2022-07-30T15:52:44.846Z,57.79
2022-07-30T15:57:45.302Z,59.29
2022-07-30T16:02:47.284Z,60.85
2022-07-30T16:07:43.618Z,61.39
2022-07-30T16:12:43.390Z,61.64
2022-07-30T16:17:46.177Z,60.87
2022-07-30T16:22:42.845Z,58.26
2022-07-30T16:27:42.213Z,57.23
2022-07-30T16:32:44.853Z,56.51
2022-07-30T16:37:42.124Z,57.92
2022-07-30T16:42:40.851Z,58.07
2022-07-30T16:47:50.098Z,59.66
2022-07-30T16:52:47.594Z,61.21
2022-07-30T16:57:39.386Z,63.39
2022-07-30T17:02:42.025Z,65.41
2022-07-30T17:07:38.521Z,64.05
2022-07-30T17:12:37.997Z,63.04
2022-07-30T17:17:40.703Z,60.16
2022-07-30T17:22:41.364Z,63.62
2022-07-30T17:27:36.574Z,61.26
2022-07-30T17:32:39.368Z,60.37
2022-07-30T17:37:38.906Z,58.72
2022-07-30T17:42:35.176Z,55.97
2022-07-30T17:47:37.958Z,54.42
2022-07-30T17:52:34.795Z,54.72
2022-07-30T17:57:33.910Z,57.27
2022-07-30T18:02:36.414Z,56.48
2022-07-30T18:07:32.726Z,55.75
2022-07-30T18:12:35.563Z,54.27
2022-07-30T18:17:35.053Z,55.59
2022-07-30T18:22:34.512Z,56.86
2022-07-30T18:27:30.939Z,53.82
2022-07-30T18:32:30.391Z,57.83
2022-07-30T18:37:41.563Z,58.22
2022-07-30T18:42:29.526Z,64.09
2022-07-30T18:47:28.945Z,59.14
2022-07-30T18:52:28.376Z,57.63
2022-07-30T18:57:28.013Z,57.08
2022-07-30T19:02:30.995Z,55.26
2022-07-30T19:07:30.052Z,56.94
2022-07-30T19:12:26.406Z,52.62
2022-07-30T19:17:46.525Z,54.25
2022-07-30T19:22:29.822Z,53.44
2022-07-30T19:27:24.986Z,55.65
2022-07-30T19:32:27.530Z,56.80
2022-07-30T19:37:27.057Z,59.05
2022-07-30T19:42:23.909Z,54.01
2022-07-30T19:47:24.785Z,53.60
2022-07-30T19:52:23.960Z,53.44
2022-07-30T19:57:21.977Z,55.79
2022-07-30T20:02:22.610Z,60.74
2022-07-30T20:07:20.947Z,89.93
2022-07-30T20:12:24.291Z,75.41
2022-07-30T20:17:20.283Z,62.96
2022-07-30T20:22:19.215Z,74.77
2022-07-30T20:27:38.802Z,100.07
2022-07-30T20:32:18.014Z,91.86
2022-07-30T20:37:22.603Z,66.82
2022-07-30T20:42:21.841Z,78.50
2022-07-30T20:47:16.678Z,101.85
2022-07-30T20:52:15.957Z,98.51
2022-07-30T20:57:20.269Z,70.27
2022-07-30T21:02:15.448Z,77.63
2022-07-30T21:07:14.323Z,92.83
2022-07-30T21:12:13.846Z,100.31
2022-07-30T21:17:16.336Z,65.36
2022-07-30T21:22:13.673Z,73.48
2022-07-30T21:27:13.282Z,90.78
2022-07-30T21:32:15.110Z,103.41
2022-07-30T21:37:15.417Z,68.13
2022-07-30T21:42:13.485Z,70.32
2022-07-30T21:47:10.870Z,84.46
2022-07-30T21:52:09.317Z,98.16
2022-07-30T21:57:11.953Z,67.25
2022-07-30T22:02:11.219Z,72.12
2022-07-30T22:07:10.914Z,85.32
2022-07-30T22:27:56.143Z,52.04
2022-07-30T22:33:37.141Z,69.45
2022-07-30T22:38:36.527Z,83.06
2022-07-30T22:43:40.982Z,93.45
2022-07-30T22:48:38.380Z,66.43
2022-07-30T22:54:03.172Z,67.17
2022-07-30T22:58:37.798Z,78.41
2022-07-30T23:03:33.509Z,93.96
2022-07-30T23:08:36.078Z,67.59
2022-07-30T23:13:32.450Z,71.56
2022-07-30T23:18:31.976Z,83.78
2022-07-30T23:23:34.698Z,92.78
2022-07-30T23:28:30.643Z,65.21
2022-07-30T23:33:30.033Z,76.26
2022-07-30T23:38:32.688Z,88.02
2022-07-30T23:43:28.905Z,97.41
2022-07-30T23:48:28.350Z,71.12
2022-07-30T23:53:31.103Z,76.51
2022-07-30T23:58:27.445Z,88.69
